createdAt,value
2018-09-24T00:02:22.882Z,63.67
2018-09-24T00:04:52.812Z,63.27
2018-09-24T00:07:22.773Z,59.23
2018-09-24T00:09:52.652Z,57.73
2018-09-24T00:12:22.446Z,62.17
2018-09-24T00:14:52.125Z,53.30
2018-09-24T00:17:22.064Z,57.60
2018-09-24T00:19:51.782Z,47.70
2018-09-24T00:22:21.479Z,49.70
2018-09-24T00:24:51.167Z,46.83
2018-09-24T00:27:21.387Z,49.43
2018-09-24T00:29:51.182Z,52.17
2018-09-24T00:32:21.033Z,49.10
2018-09-24T00:34:51.015Z,48.90
2018-09-24T00:37:20.902Z,42.23
2018-09-24T00:39:50.766Z,46.83
2018-09-24T00:42:20.430Z,45.00
2018-09-24T00:44:50.046Z,39.73
2018-09-24T00:47:19.887Z,48.50
2018-09-24T00:49:49.699Z,55.53
2018-09-24T00:52:19.833Z,42.50
2018-09-24T00:54:49.765Z,46.53
2018-09-24T00:57:19.478Z,43.37
2018-09-24T00:59:49.259Z,49.53
2018-09-24T01:02:19.077Z,53.78
2018-09-24T01:04:48.993Z,55.73
2018-09-24T01:07:18.737Z,54.10
2018-09-24T01:09:48.804Z,54.47
2018-09-24T01:12:18.611Z,52.83
2018-09-24T01:14:48.497Z,53.83
2018-09-24T01:17:18.472Z,60.23
2018-09-24T01:19:48.125Z,60.90
2018-09-24T01:22:18.022Z,56.57
2018-09-24T01:24:47.821Z,57.90
2018-09-24T01:27:17.619Z,70.97
2018-09-24T01:29:47.405Z,60.40
2018-09-24T01:32:17.301Z,55.47
2018-09-24T01:34:47.270Z,49.03
2018-09-24T01:37:17.167Z,51.93
2018-09-24T01:39:46.948Z,49.37
2018-09-24T01:42:16.700Z,51.07
2018-09-24T01:44:46.655Z,50.87
2018-09-24T01:47:16.553Z,50.37
2018-09-24T01:52:39.794Z,41.27
2018-09-24T01:55:09.596Z,49.17
2018-09-24T01:57:39.578Z,45.10
2018-09-24T02:00:09.230Z,77.43
2018-09-24T02:02:39.106Z,102.80
2018-09-24T02:05:16.020Z,99.23
2018-09-24T02:07:46.124Z,84.70
2018-09-24T02:10:22.575Z,85.17
2018-09-24T02:12:55.208Z,77.80
2018-09-24T02:15:32.099Z,67.63
2018-09-24T02:18:02.368Z,66.80
2018-09-24T02:20:32.018Z,58.87
2018-09-24T02:23:01.743Z,53.60
2018-09-24T02:25:32.027Z,54.60
2018-09-24T02:28:01.746Z,49.67
2018-09-24T02:30:31.413Z,45.73
2018-09-24T02:33:01.535Z,43.53
2018-09-24T02:35:31.460Z,44.77
2018-09-24T02:38:01.428Z,47.97
2018-09-24T02:40:31.483Z,42.43
2018-09-24T02:43:01.194Z,39.83
2018-09-24T02:45:31.233Z,37.57
2018-09-24T02:48:01.129Z,43.53
2018-09-24T02:50:37.698Z,43.13
2018-09-24T02:53:08.787Z,67.73
2018-09-24T02:55:38.629Z,72.77
2018-09-24T02:58:08.723Z,48.47
2018-09-24T03:00:39.470Z,65.83
2018-09-24T03:03:11.632Z,50.23
2018-09-24T03:05:41.757Z,47.70
2018-09-24T03:08:13.091Z,59.90
2018-09-24T03:10:43.312Z,152.60
2018-09-24T03:13:13.015Z,157.67
2018-09-24T03:15:43.041Z,143.07
2018-09-24T03:18:12.863Z,97.93
2018-09-24T03:20:44.039Z,81.93
2018-09-24T03:23:13.958Z,77.93
2018-09-24T03:25:43.735Z,73.22
2018-09-24T03:28:13.439Z,67.97
2018-09-24T03:30:43.685Z,54.03
2018-09-24T03:33:13.793Z,48.43
2018-09-24T03:35:43.665Z,72.30
2018-09-24T03:38:13.602Z,74.40
2018-09-24T03:40:43.433Z,41.33
2018-09-24T03:43:13.284Z,49.40
2018-09-24T03:45:43.111Z,104.60
2018-09-24T03:48:12.910Z,100.80
2018-09-24T03:50:42.678Z,63.37
2018-09-24T03:53:12.855Z,65.60
2018-09-24T03:55:43.003Z,76.90
2018-09-24T03:58:12.932Z,60.73
2018-09-24T04:00:42.812Z,69.10
2018-09-24T04:03:12.968Z,63.87
2018-09-24T04:05:47.676Z,58.57
2018-09-24T04:08:22.509Z,43.97
2018-09-24T04:10:57.130Z,47.23
2018-09-24T04:13:32.018Z,43.70
2018-09-24T04:16:06.764Z,52.37
2018-09-24T04:18:41.448Z,42.53
2018-09-24T04:21:16.391Z,37.10
2018-09-24T04:23:51.379Z,39.67
2018-09-24T04:26:26.232Z,45.83
2018-09-24T04:29:01.339Z,47.17
2018-09-24T04:31:36.237Z,43.40
2018-09-24T04:34:11.039Z,39.73
2018-09-24T04:36:45.745Z,45.60
2018-09-24T04:39:20.329Z,48.57
2018-09-24T04:41:55.040Z,42.10
2018-09-24T04:44:29.667Z,78.97
2018-09-24T04:47:04.600Z,76.73
2018-09-24T04:49:39.237Z,67.50
2018-09-24T04:52:14.030Z,173.23
2018-09-24T04:54:48.709Z,148.63
2018-09-24T04:57:23.203Z,124.10
2018-09-24T04:59:57.838Z,92.03
2018-09-24T05:02:33.300Z,70.97
2018-09-24T05:05:08.485Z,56.97
2018-09-24T05:07:42.983Z,49.17
2018-09-24T05:10:17.836Z,43.83
2018-09-24T05:15:45.214Z,41.97
2018-09-24T05:18:20.067Z,44.33
2018-09-24T05:20:55.029Z,38.87
2018-09-24T05:23:30.215Z,44.40
2018-09-24T05:26:05.467Z,33.13
2018-09-24T05:28:40.443Z,36.67
2018-09-24T05:31:15.602Z,35.90
2018-09-24T05:33:50.448Z,37.40
2018-09-24T05:36:25.228Z,33.57
2018-09-24T05:38:59.952Z,29.23
2018-09-24T05:41:34.718Z,34.30
2018-09-24T05:44:09.250Z,37.77
2018-09-24T05:46:44.199Z,37.60
2018-09-24T05:49:19.016Z,37.10
2018-09-24T05:51:53.963Z,39.80
2018-09-24T05:54:28.824Z,34.20
2018-09-24T05:57:03.584Z,34.30
2018-09-24T05:59:38.234Z,38.23
2018-09-24T06:02:13.079Z,37.57
2018-09-24T06:04:47.905Z,35.70
2018-09-24T06:07:22.511Z,37.27
2018-09-24T06:09:57.339Z,35.83
2018-09-24T06:12:32.028Z,43.03
2018-09-24T06:15:06.798Z,42.43
2018-09-24T06:17:41.457Z,35.17
2018-09-24T06:20:16.195Z,32.30
2018-09-24T06:22:50.808Z,26.33
2018-09-24T06:25:25.622Z,25.03
2018-09-24T06:28:00.132Z,22.50
2018-09-24T06:30:34.764Z,27.67
2018-09-24T06:33:09.491Z,27.17
2018-09-24T06:35:44.435Z,30.10
2018-09-24T06:38:19.141Z,23.87
2018-09-24T06:40:53.812Z,20.23
2018-09-24T06:43:28.698Z,22.83
2018-09-24T06:46:03.755Z,24.30
2018-09-24T06:48:38.484Z,22.97
2018-09-24T06:51:13.379Z,20.97
2018-09-24T08:30:37.411Z,20.70
2018-09-24T08:33:12.975Z,20.20
2018-09-24T08:35:49.000Z,16.83
2018-09-24T08:38:24.572Z,27.57
2018-09-24T08:40:59.284Z,18.67
2018-09-24T08:43:34.680Z,18.07
2018-09-24T08:46:09.557Z,25.87
2018-09-24T08:48:44.807Z,16.67
2018-09-24T08:51:19.802Z,20.03
2018-09-24T08:53:54.827Z,23.67
2018-09-24T08:56:29.628Z,16.80
2018-09-24T08:59:04.324Z,12.50
2018-09-24T09:01:39.412Z,21.13
2018-09-24T09:04:14.302Z,17.53
2018-09-24T09:06:49.274Z,15.73
2018-09-24T09:09:24.276Z,15.33
2018-09-24T09:11:59.231Z,15.47
2018-09-24T09:14:33.947Z,13.17
2018-09-24T09:17:08.662Z,17.37
2018-09-24T09:19:43.302Z,18.03
2018-09-24T09:22:18.085Z,12.57
2018-09-24T09:24:52.789Z,19.40
2018-09-24T09:27:27.653Z,19.60
2018-09-24T09:30:02.716Z,14.93
2018-09-24T09:32:37.461Z,22.20
2018-09-24T09:35:12.562Z,17.37
2018-09-24T09:37:47.401Z,18.00
2018-09-24T09:40:22.173Z,19.40
2018-09-24T09:42:57.243Z,13.90
2018-09-24T09:45:32.010Z,13.90
2018-09-24T09:48:07.076Z,21.60
2018-09-24T09:50:42.274Z,22.33
2018-09-24T09:53:17.084Z,15.77
2018-09-24T09:55:52.166Z,15.40
2018-09-24T09:58:26.871Z,12.17
2018-09-24T10:01:01.634Z,15.90
2018-09-24T10:03:36.601Z,19.53
2018-09-24T10:06:11.396Z,14.77
2018-09-24T10:08:46.605Z,12.23
2018-09-24T10:11:21.685Z,9.40
2018-09-24T10:13:56.727Z,12.93
2018-09-24T10:16:31.631Z,12.93
2018-09-24T10:19:06.650Z,11.20
2018-09-24T10:21:41.533Z,11.70
2018-09-24T10:24:16.389Z,13.33
2018-09-24T10:26:51.288Z,17.17
2018-09-24T10:29:26.019Z,17.03
2018-09-24T10:32:00.826Z,20.10
2018-09-24T10:34:35.994Z,18.63
2018-09-24T10:37:11.272Z,18.33
2018-09-24T10:39:46.140Z,14.90
2018-09-24T10:42:21.414Z,13.43
2018-09-24T10:44:56.393Z,18.40
2018-09-24T10:47:31.784Z,19.50
2018-09-24T10:50:06.755Z,16.97
2018-09-24T10:52:41.602Z,13.67
2018-09-24T10:55:17.005Z,13.47
2018-09-24T10:57:51.763Z,12.20
2018-09-24T11:00:26.912Z,15.77
2018-09-24T11:03:01.625Z,18.43
2018-09-24T11:05:36.774Z,11.13
2018-09-24T11:08:11.836Z,11.17
2018-09-24T11:10:47.826Z,11.73
2018-09-24T11:13:22.702Z,13.60
2018-09-24T11:15:57.618Z,12.20
2018-09-24T11:18:33.156Z,10.37
2018-09-24T11:21:08.157Z,8.53
2018-09-24T11:23:43.212Z,10.80
2018-09-24T11:28:53.818Z,13.00
2018-09-24T11:31:29.167Z,8.03
2018-09-24T11:34:04.043Z,11.90
2018-09-24T11:36:38.881Z,11.47
2018-09-24T11:39:14.680Z,15.33
2018-09-24T11:41:49.577Z,20.67
2018-09-24T11:44:24.905Z,16.43
2018-09-24T11:46:59.840Z,24.47
2018-09-24T11:49:34.616Z,12.57
2018-09-24T11:52:09.542Z,18.57
2018-09-24T11:54:44.235Z,17.03
2018-09-24T11:57:19.111Z,20.03
2018-09-24T11:59:54.292Z,21.93
2018-09-24T12:02:28.984Z,18.97
2018-09-24T12:05:03.849Z,25.33
2018-09-24T12:07:38.747Z,18.17
2018-09-24T12:10:13.746Z,20.33
2018-09-24T12:12:48.517Z,26.23
2018-09-24T12:15:23.766Z,21.40
2018-09-24T12:17:59.710Z,19.33
2018-09-24T12:20:34.666Z,23.27
2018-09-24T12:23:09.857Z,22.87
2018-09-24T12:25:44.870Z,19.17
2018-09-24T12:28:19.782Z,19.10
2018-09-24T12:30:56.735Z,23.60
2018-09-24T12:33:31.399Z,23.07
2018-09-24T12:36:06.437Z,23.00
2018-09-24T12:38:41.256Z,23.77
2018-09-24T12:41:16.092Z,20.80
2018-09-24T12:43:51.106Z,17.17
2018-09-24T12:46:26.388Z,24.40
2018-09-24T12:49:01.299Z,18.03
2018-09-24T12:51:36.270Z,18.77
2018-09-24T12:54:11.252Z,15.63
2018-09-24T12:56:46.569Z,19.63
2018-09-24T12:59:21.548Z,16.13
2018-09-24T13:01:57.088Z,15.47
2018-09-24T13:04:31.859Z,18.53
2018-09-24T13:07:06.862Z,16.60
2018-09-24T13:09:41.897Z,18.80
2018-09-24T13:12:16.791Z,21.50
2018-09-24T13:14:52.234Z,22.90
2018-09-24T13:17:27.031Z,18.60
2018-09-24T13:20:02.049Z,17.27
2018-09-24T13:22:38.194Z,18.03
2018-09-24T13:25:13.364Z,20.97
2018-09-24T13:27:48.230Z,13.47
2018-09-24T13:30:22.915Z,15.37
2018-09-24T13:32:57.937Z,17.33
2018-09-24T13:35:32.795Z,16.23
2018-09-24T13:38:07.908Z,16.37
2018-09-24T13:40:43.196Z,14.63
2018-09-24T13:43:18.114Z,17.70
2018-09-24T13:45:53.014Z,19.80
2018-09-24T13:48:28.148Z,15.00
2018-09-24T13:51:03.136Z,15.97
2018-09-24T13:53:38.038Z,17.43
2018-09-24T13:56:12.713Z,18.00
2018-09-24T13:58:47.621Z,26.40
2018-09-24T14:01:22.281Z,13.57
2018-09-24T14:03:57.064Z,21.43
2018-09-24T14:06:31.787Z,17.43
2018-09-24T14:09:06.541Z,19.57
2018-09-24T14:11:41.288Z,20.13
2018-09-24T14:14:16.343Z,15.57
2018-09-24T14:16:51.526Z,15.03
2018-09-24T14:19:26.510Z,23.33
2018-09-24T14:22:01.729Z,29.13
2018-09-24T14:24:36.837Z,15.73
2018-09-24T14:27:11.539Z,19.17
2018-09-24T14:29:46.383Z,16.80
2018-09-24T14:32:21.171Z,16.53
2018-09-24T14:34:56.129Z,12.87
2018-09-24T14:37:32.394Z,18.53
2018-09-24T14:40:10.878Z,23.53
2018-09-24T14:42:45.712Z,18.87
2018-09-24T14:45:20.609Z,16.63
2018-09-24T14:47:55.523Z,22.97
2018-09-24T14:50:30.645Z,17.37
2018-09-24T14:53:05.226Z,18.83
2018-09-24T14:55:40.360Z,18.27
2018-09-24T14:58:20.166Z,24.17
2018-09-24T15:00:56.147Z,23.73
2018-09-24T15:03:32.956Z,19.13
2018-09-24T15:06:07.874Z,20.37
2018-09-24T15:08:43.008Z,17.63
2018-09-24T15:11:18.672Z,15.40
2018-09-24T15:13:53.807Z,11.27
2018-09-24T15:16:30.857Z,13.10
2018-09-24T15:19:06.691Z,12.80
2018-09-24T15:21:42.104Z,11.47
2018-09-24T15:24:17.644Z,14.07
2018-09-24T15:26:52.660Z,21.37
2018-09-24T15:29:28.819Z,17.40
2018-09-24T15:32:05.191Z,22.27
2018-09-24T15:34:42.084Z,19.63
2018-09-24T15:37:17.400Z,20.00
2018-09-24T15:39:53.209Z,23.60
2018-09-24T15:42:28.021Z,18.53
2018-09-24T15:45:04.352Z,29.13
2018-09-24T15:47:39.143Z,26.70
2018-09-24T15:50:14.466Z,45.60
2018-09-24T15:52:49.338Z,20.23
2018-09-24T15:55:24.265Z,26.97
2018-09-24T15:57:59.535Z,25.53
2018-09-24T16:00:34.374Z,20.50
2018-09-24T16:03:09.245Z,19.67
2018-09-24T16:05:44.216Z,19.80
2018-09-24T16:08:18.945Z,27.77
2018-09-24T16:10:53.936Z,26.70
2018-09-24T16:13:29.307Z,29.77
2018-09-24T16:16:04.264Z,31.50
2018-09-24T16:18:39.119Z,34.83
2018-09-24T16:21:14.299Z,28.33
2018-09-24T16:23:49.118Z,35.73
2018-09-24T16:26:23.953Z,22.83
2018-09-24T16:28:58.898Z,23.73
2018-09-24T16:31:34.818Z,17.17
2018-09-24T16:34:09.970Z,32.07
2018-09-24T16:36:45.273Z,44.57
2018-09-24T16:39:20.743Z,50.77
2018-09-24T16:41:55.674Z,53.10
2018-09-24T16:44:30.787Z,41.90
2018-09-24T16:47:06.029Z,42.40
2018-09-24T16:49:41.841Z,35.63
2018-09-24T16:52:16.628Z,57.57
2018-09-24T16:54:51.594Z,45.73
2018-09-24T16:57:26.555Z,74.70
2018-09-24T17:00:01.355Z,47.07
2018-09-24T17:02:36.234Z,41.10
2018-09-24T17:05:11.486Z,38.87
2018-09-24T17:07:46.252Z,27.20
2018-09-24T17:10:21.361Z,52.50
2018-09-24T17:12:56.396Z,39.70
2018-09-24T17:15:31.743Z,43.93
2018-09-24T17:18:07.033Z,41.10
2018-09-24T17:20:42.001Z,38.87
2018-09-24T17:23:17.002Z,51.40
2018-09-24T17:25:53.048Z,46.03
2018-09-24T17:28:27.665Z,48.33
2018-09-24T17:31:02.756Z,43.23
2018-09-24T17:33:37.809Z,39.43
2018-09-24T17:36:13.148Z,41.93
2018-09-24T17:38:48.349Z,39.80
2018-09-24T17:41:23.307Z,42.53
2018-09-24T17:43:58.082Z,71.63
2018-09-24T17:46:33.574Z,77.00
2018-09-24T17:49:08.485Z,71.67
2018-09-24T17:51:43.811Z,61.50
2018-09-24T17:54:18.893Z,78.83
2018-09-24T17:56:54.250Z,62.47
2018-09-24T17:59:29.846Z,79.33
2018-09-24T18:02:05.355Z,73.77
2018-09-24T18:07:16.552Z,48.53
2018-09-24T18:09:51.758Z,60.70
2018-09-24T18:12:27.447Z,38.47
2018-09-24T18:15:03.136Z,40.83
2018-09-24T18:17:38.743Z,45.23
2018-09-24T18:20:14.261Z,36.47
2018-09-24T18:22:50.045Z,30.40
2018-09-24T18:25:25.468Z,36.93
2018-09-24T18:28:01.083Z,54.33
2018-09-24T18:30:36.938Z,34.10
2018-09-24T18:33:12.424Z,54.57
2018-09-24T18:35:47.249Z,49.97
2018-09-24T18:38:22.925Z,56.43
2018-09-24T18:40:58.309Z,48.90
2018-09-24T18:43:34.506Z,63.93
2018-09-24T18:46:09.766Z,52.53
2018-09-24T18:48:45.171Z,63.13
2018-09-24T18:51:20.468Z,54.27
2018-09-24T18:53:56.260Z,55.50
2018-09-24T18:56:31.638Z,57.33
2018-09-24T18:59:06.898Z,55.57
2018-09-24T19:01:42.619Z,52.73
2018-09-24T19:04:17.723Z,63.87
2018-09-24T19:06:52.537Z,67.33
2018-09-24T19:09:27.671Z,51.83
2018-09-24T19:12:02.735Z,51.70
2018-09-24T19:14:37.677Z,52.80
2018-09-24T19:17:12.825Z,54.30
2018-09-24T19:19:48.188Z,61.50
2018-09-24T19:22:22.995Z,65.67
2018-09-24T19:24:57.721Z,44.33
2018-09-24T19:27:33.588Z,45.07
2018-09-24T19:30:08.739Z,42.13
2018-09-24T19:32:44.121Z,39.57
2018-09-24T19:35:19.383Z,49.70
2018-09-24T19:38:00.914Z,39.50
2018-09-24T19:40:36.117Z,34.40
2018-09-24T19:43:11.350Z,35.03
2018-09-24T19:45:48.096Z,43.30
2018-09-24T19:48:23.455Z,33.73
2018-09-24T19:50:58.918Z,25.57
2018-09-24T19:53:33.723Z,25.07
2018-09-24T19:56:08.702Z,23.50
2018-09-24T19:58:44.150Z,25.57
2018-09-24T20:01:19.168Z,25.53
2018-09-24T20:03:54.768Z,30.53
2018-09-24T20:06:30.217Z,21.33
2018-09-24T20:09:05.454Z,29.00
2018-09-24T20:11:40.233Z,27.07
2018-09-24T20:14:15.332Z,46.27
2018-09-24T20:16:50.219Z,38.70
2018-09-24T20:19:25.365Z,58.40
2018-09-24T20:22:00.596Z,77.60
2018-09-24T20:24:35.828Z,89.07
2018-09-24T20:27:11.515Z,80.93
2018-09-24T20:29:46.263Z,75.47
2018-09-24T20:32:21.870Z,68.03
2018-09-24T20:34:56.882Z,64.10
2018-09-24T20:37:31.969Z,53.07
2018-09-24T20:40:07.032Z,54.40
2018-09-24T20:42:43.250Z,48.27
2018-09-24T20:45:18.634Z,47.33
2018-09-24T20:47:53.691Z,46.67
2018-09-24T20:50:28.882Z,45.43
2018-09-24T20:53:03.711Z,54.70
2018-09-24T20:55:39.745Z,41.20
2018-09-24T20:58:14.891Z,44.17
2018-09-24T21:00:50.161Z,43.00
2018-09-24T21:03:25.250Z,35.63
2018-09-24T21:06:00.331Z,46.50
2018-09-24T21:08:35.432Z,41.87
2018-09-24T21:11:10.831Z,24.00
2018-09-24T21:13:47.005Z,35.07
2018-09-24T21:16:22.131Z,32.07
2018-09-24T21:19:10.135Z,23.17
2018-09-24T21:21:45.754Z,22.30
2018-09-24T21:24:20.973Z,24.83
2018-09-24T21:26:55.709Z,31.10
2018-09-24T21:29:31.157Z,33.60
2018-09-24T21:32:06.383Z,36.67
2018-09-24T21:37:18.963Z,42.70
2018-09-24T21:39:54.827Z,51.23
2018-09-24T21:42:29.815Z,42.47
2018-09-24T21:45:04.813Z,37.53
2018-09-24T21:47:39.586Z,42.23
2018-09-24T21:50:15.057Z,38.33
2018-09-24T21:52:50.118Z,34.67
2018-09-24T21:55:25.073Z,32.67
2018-09-24T21:58:00.534Z,31.90
2018-09-24T22:00:36.464Z,32.60
2018-09-24T22:03:11.585Z,30.90
2018-09-24T22:05:46.249Z,32.17
2018-09-24T22:08:21.014Z,33.40
2018-09-24T22:10:55.774Z,30.03
2018-09-24T22:13:30.491Z,27.57
2018-09-24T22:16:05.511Z,24.83
2018-09-24T22:18:40.493Z,17.83
2018-09-24T22:21:15.662Z,21.47
2018-09-24T22:23:50.696Z,23.73
2018-09-24T22:26:25.486Z,24.50
2018-09-24T22:29:00.161Z,25.63
2018-09-24T22:31:35.032Z,31.87
2018-09-24T22:34:09.992Z,37.93
2018-09-24T22:36:44.817Z,53.50
2018-09-24T22:39:19.424Z,39.03
2018-09-24T22:41:54.440Z,40.50
2018-09-24T22:44:29.325Z,31.40
2018-09-24T22:47:04.602Z,31.40
2018-09-24T22:49:39.930Z,43.07
2018-09-24T22:52:14.818Z,107.60
2018-09-24T22:54:49.532Z,87.83
2018-09-24T22:57:24.450Z,80.97
2018-09-24T22:59:59.381Z,127.60
2018-09-24T23:02:34.272Z,103.83
2018-09-24T23:05:08.977Z,74.57
2018-09-24T23:07:43.733Z,97.60
2018-09-24T23:10:18.393Z,92.97
2018-09-24T23:12:53.186Z,65.40
2018-09-24T23:15:28.023Z,42.43
2018-09-24T23:18:02.818Z,38.13
2018-09-24T23:20:38.057Z,33.57
2018-09-24T23:23:12.840Z,35.07
2018-09-24T23:25:47.675Z,28.23
2018-09-24T23:28:22.346Z,29.43
2018-09-24T23:30:57.357Z,26.13
2018-09-24T23:33:32.193Z,24.37
2018-09-24T23:36:07.265Z,26.33
2018-09-24T23:38:42.151Z,30.07
2018-09-24T23:41:16.916Z,35.63
2018-09-24T23:43:51.882Z,33.47
2018-09-24T23:46:27.273Z,34.80
2018-09-24T23:49:02.157Z,33.33
2018-09-24T23:51:37.005Z,26.93
2018-09-24T23:54:12.225Z,33.63
2018-09-24T23:56:48.059Z,39.67
2018-09-24T23:59:22.865Z,37.43
